createdAt,value
2018-04-02T00:02:24.789Z,1.92
2018-04-02T00:04:52.367Z,3.75
2018-04-02T00:07:19.905Z,3.45
2018-04-02T00:09:47.418Z,3.92
2018-04-02T00:12:15.008Z,4.22
2018-04-02T00:14:42.532Z,2.85
2018-04-02T00:17:10.211Z,2.70
2018-04-02T00:19:37.936Z,3.12
2018-04-02T00:22:05.528Z,4.90
2018-04-02T00:24:33.087Z,2.67
2018-04-02T00:27:00.604Z,5.00
2018-04-02T00:29:28.128Z,4.53
2018-04-02T00:31:55.709Z,3.72
2018-04-02T00:34:23.309Z,5.28
2018-04-02T00:36:51.009Z,8.35
2018-04-02T00:39:18.557Z,5.25
2018-04-02T00:41:46.212Z,4.37
2018-04-02T00:44:13.723Z,2.75
2018-04-02T00:46:41.265Z,3.95
2018-04-02T00:49:08.875Z,4.82
2018-04-02T00:51:37.307Z,5.32
2018-04-02T00:54:06.542Z,3.90
2018-04-02T00:56:34.126Z,6.65
2018-04-02T00:59:01.737Z,9.27
2018-04-02T01:01:29.276Z,12.65
2018-04-02T01:03:56.837Z,8.32
2018-04-02T01:06:24.509Z,13.45
2018-04-02T01:08:52.190Z,16.12
2018-04-02T01:11:19.873Z,16.85
2018-04-02T01:13:48.279Z,20.83
2018-04-02T01:16:15.827Z,26.98
2018-04-02T01:18:43.424Z,26.37
2018-04-02T01:21:10.973Z,21.15
2018-04-02T01:23:38.569Z,17.65
2018-04-02T01:26:08.961Z,26.87
2018-04-02T01:28:36.587Z,24.90
2018-04-02T01:31:05.004Z,25.83
2018-04-02T01:33:32.580Z,30.35
2018-04-02T01:36:00.128Z,26.65
2018-04-02T01:38:27.700Z,20.27
2018-04-02T01:40:55.312Z,27.40
2018-04-02T01:43:24.041Z,27.17
2018-04-02T01:45:52.566Z,23.73
2018-04-02T01:48:21.780Z,20.33
2018-04-02T01:50:49.403Z,24.92
2018-04-02T01:53:16.968Z,19.70
2018-04-02T01:55:44.527Z,14.48
2018-04-02T01:58:12.148Z,15.13
2018-04-02T02:00:39.852Z,9.30
2018-04-02T02:03:07.706Z,10.65
2018-04-02T02:05:35.700Z,9.88
2018-04-02T02:08:03.264Z,14.40
2018-04-02T02:10:30.784Z,12.70
2018-04-02T02:12:58.300Z,12.10
2018-04-02T02:15:26.056Z,8.90
2018-04-02T02:17:53.624Z,11.32
2018-04-02T02:20:21.209Z,10.45
2018-04-02T02:22:49.365Z,8.07
2018-04-02T02:25:16.861Z,7.25
2018-04-02T02:27:44.461Z,6.97
2018-04-02T02:30:12.014Z,8.93
2018-04-02T02:32:39.558Z,5.80
2018-04-02T02:35:07.750Z,9.05
2018-04-02T02:37:35.693Z,11.65
2018-04-02T02:40:03.792Z,7.28
2018-04-02T02:42:31.368Z,5.97
2018-04-02T02:44:58.906Z,9.23
2018-04-02T02:47:26.504Z,6.47
2018-04-02T02:49:54.037Z,8.30
2018-04-02T02:52:21.633Z,10.50
2018-04-02T02:54:49.192Z,8.00
2018-04-02T02:57:21.318Z,13.05
2018-04-02T02:59:48.856Z,10.20
2018-04-02T03:02:16.385Z,10.40
2018-04-02T03:04:43.944Z,10.15
2018-04-02T03:07:11.518Z,13.10
2018-04-02T03:09:39.708Z,10.68
2018-04-02T03:12:07.868Z,9.25
2018-04-02T03:14:36.245Z,14.52
2018-04-02T03:17:03.823Z,10.27
2018-04-02T03:19:31.391Z,10.27
2018-04-02T03:21:58.900Z,12.77
2018-04-02T03:24:26.484Z,12.02
2018-04-02T03:26:54.199Z,16.05
2018-04-02T03:29:21.942Z,11.23
2018-04-02T03:31:49.579Z,12.45
2018-04-02T03:34:17.143Z,10.65
2018-04-02T03:36:44.717Z,13.02
2018-04-02T03:39:12.243Z,11.93
2018-04-02T03:41:39.791Z,20.10
2018-04-02T03:44:07.583Z,13.77
2018-04-02T03:46:35.830Z,17.05
2018-04-02T03:49:03.731Z,16.85
2018-04-02T03:51:31.775Z,14.20
2018-04-02T03:53:59.307Z,13.75
2018-04-02T03:56:26.880Z,15.40
2018-04-02T03:58:54.472Z,21.85
2018-04-02T04:01:22.080Z,19.87
2018-04-02T04:03:49.753Z,15.68
2018-04-02T04:06:17.356Z,14.93
2018-04-02T04:08:45.025Z,12.75
2018-04-02T04:11:12.515Z,15.63
2018-04-02T04:13:40.024Z,16.20
2018-04-02T04:16:07.576Z,12.40
2018-04-02T04:18:35.268Z,13.75
2018-04-02T04:21:03.802Z,16.85
2018-04-02T04:23:31.727Z,11.68
2018-04-02T04:26:00.144Z,12.88
2018-04-02T04:28:27.668Z,13.15
2018-04-02T04:30:55.176Z,13.23
2018-04-02T04:33:22.736Z,10.63
2018-04-02T04:35:50.362Z,9.07
2018-04-02T04:38:17.953Z,11.73
2018-04-02T04:40:45.525Z,12.13
2018-04-02T04:43:13.125Z,8.45
2018-04-02T04:45:40.657Z,10.82
2018-04-02T04:48:08.158Z,11.38
2018-04-02T04:50:35.733Z,10.45
2018-04-02T04:53:03.470Z,10.68
2018-04-02T04:55:32.059Z,9.65
2018-04-02T04:58:00.820Z,12.15
2018-04-02T05:00:28.576Z,9.77
2018-04-02T05:02:56.132Z,12.55
2018-04-02T05:05:23.665Z,12.43
2018-04-02T05:07:51.283Z,9.25
2018-04-02T05:10:19.916Z,11.10
2018-04-02T05:12:48.454Z,12.77
2018-04-02T05:15:16.789Z,10.55
2018-04-02T05:17:45.347Z,14.13
2018-04-02T05:20:12.917Z,8.48
2018-04-02T05:22:40.485Z,11.82
2018-04-02T05:25:08.060Z,9.88
2018-04-02T05:27:36.903Z,16.33
2018-04-02T05:30:04.980Z,13.35
2018-04-02T05:32:32.737Z,10.75
2018-04-02T05:35:01.494Z,17.35
2018-04-02T05:37:29.038Z,11.05
2018-04-02T05:39:56.620Z,17.75
2018-04-02T05:42:24.169Z,13.13
2018-04-02T05:44:51.992Z,12.85
2018-04-02T05:47:20.510Z,12.30
2018-04-02T05:49:48.546Z,13.52
2018-04-02T05:52:16.352Z,13.80
2018-04-02T05:54:43.880Z,13.32
2018-04-02T05:57:11.460Z,14.73
2018-04-02T05:59:39.012Z,22.62
2018-04-02T06:02:07.500Z,14.85
2018-04-02T06:04:36.205Z,17.62
2018-04-02T06:07:04.659Z,11.50
2018-04-02T06:09:33.306Z,12.05
2018-04-02T06:12:00.852Z,15.60
2018-04-02T06:14:28.399Z,12.48
2018-04-02T06:16:55.987Z,16.60
2018-04-02T06:19:23.764Z,13.57
2018-04-02T06:21:52.153Z,13.60
2018-04-02T06:24:20.584Z,16.92
2018-04-02T06:26:49.156Z,11.20
2018-04-02T06:29:16.724Z,18.33
2018-04-02T06:31:44.268Z,13.20
2018-04-02T06:34:12.461Z,7.95
2018-04-02T06:36:39.825Z,12.15
2018-04-02T06:39:07.989Z,14.80
2018-04-02T06:41:36.775Z,15.82
2018-04-02T06:44:05.307Z,15.43
2018-04-02T06:46:32.895Z,15.32
2018-04-02T06:49:00.448Z,21.60
2018-04-02T06:51:28.030Z,15.88
2018-04-02T06:53:55.887Z,18.05
2018-04-02T06:56:26.254Z,20.00
2018-04-02T06:58:54.047Z,14.05
2018-04-02T07:01:26.543Z,13.73
2018-04-02T07:03:55.448Z,13.27
2018-04-02T07:06:23.003Z,12.82
2018-04-02T07:08:50.520Z,15.15
2018-04-02T07:11:19.879Z,15.85
2018-04-02T07:13:48.798Z,26.65
2018-04-02T07:16:18.413Z,19.62
2018-04-02T07:18:47.215Z,19.58
2018-04-02T07:21:14.803Z,28.02
2018-04-02T07:23:42.364Z,18.90
2018-04-02T07:26:09.935Z,15.45
2018-04-02T07:28:37.645Z,14.35
2018-04-02T07:31:05.292Z,21.02
2018-04-02T07:33:33.376Z,21.73
2018-04-02T07:36:01.826Z,19.62
2018-04-02T07:38:29.367Z,20.45
2018-04-02T07:40:56.936Z,17.83
2018-04-02T07:43:24.442Z,17.65
2018-04-02T07:45:52.128Z,16.30
2018-04-02T07:48:20.394Z,22.55
2018-04-02T07:50:48.745Z,19.00
2018-04-02T07:53:17.120Z,18.40
2018-04-02T07:55:44.648Z,16.40
2018-04-02T07:58:12.259Z,17.35
2018-04-02T08:00:39.813Z,14.85
2018-04-02T08:03:07.449Z,21.70
2018-04-02T08:05:35.114Z,18.87
2018-04-02T08:08:02.709Z,22.42
2018-04-02T08:10:30.355Z,14.30
2018-04-02T08:12:57.869Z,22.30
2018-04-02T08:15:25.449Z,14.80
2018-04-02T08:17:53.042Z,19.47
2018-04-02T08:20:20.762Z,23.33
2018-04-02T08:22:48.481Z,25.85
2018-04-02T08:25:16.951Z,23.07
2018-04-02T08:27:45.444Z,17.83
2018-04-02T08:30:12.979Z,17.43
2018-04-02T08:32:40.605Z,18.30
2018-04-02T08:35:08.156Z,20.70
2018-04-02T08:37:39.935Z,19.43
2018-04-02T08:40:08.050Z,19.70
2018-04-02T08:42:35.719Z,18.77
2018-04-02T08:47:53.976Z,17.87
2018-04-02T08:50:21.556Z,19.60
2018-04-02T08:52:49.140Z,20.87
2018-04-02T09:04:15.566Z,20.47
2018-04-02T09:06:43.138Z,19.98
2018-04-02T09:09:10.687Z,22.03
2018-04-02T09:21:06.695Z,20.50
2018-04-02T09:23:34.236Z,26.47
2018-04-02T09:26:01.789Z,28.33
2018-04-02T09:28:29.767Z,24.47
2018-04-02T09:31:09.859Z,20.07
2018-04-02T09:39:33.219Z,17.47
2018-04-02T09:42:00.851Z,19.17
2018-04-02T09:44:28.450Z,15.55
2018-04-02T09:55:17.468Z,13.77
2018-04-02T09:57:45.050Z,18.03
2018-04-02T10:00:12.639Z,17.33
2018-04-02T10:02:40.219Z,16.00
2018-04-02T10:14:00.580Z,17.10
2018-04-02T10:16:28.146Z,13.93
2018-04-02T10:18:55.779Z,20.17
2018-04-02T10:29:35.465Z,15.30
2018-04-02T10:32:03.056Z,15.70
2018-04-02T10:34:30.639Z,14.10
2018-04-02T10:36:58.235Z,11.93
2018-04-02T10:39:26.027Z,15.00
2018-04-02T10:42:00.853Z,17.80
2018-04-02T10:44:29.443Z,13.97
2018-04-02T10:46:57.112Z,15.63
2018-04-02T10:49:24.755Z,16.10
2018-04-02T10:51:52.306Z,17.63
2018-04-02T11:02:41.850Z,15.90
2018-04-02T11:05:09.472Z,17.07
2018-04-02T11:07:37.048Z,17.47
2018-04-02T11:10:04.645Z,11.93
2018-04-02T11:12:36.019Z,13.27
2018-04-02T11:15:04.767Z,15.80
2018-04-02T11:17:39.876Z,11.70
2018-04-02T11:22:44.204Z,9.73
2018-04-02T11:25:11.783Z,12.73
2018-04-02T11:27:39.435Z,11.50
2018-04-02T11:30:12.983Z,11.03
2018-04-02T11:35:47.802Z,8.33
2018-04-02T11:38:15.400Z,14.87
2018-04-02T11:40:43.248Z,12.67
2018-04-02T11:43:10.932Z,10.77
2018-04-02T11:45:38.657Z,9.90
2018-04-02T11:51:11.770Z,12.40
2018-04-02T11:56:55.881Z,8.73
2018-04-02T11:59:23.436Z,7.37
2018-04-02T12:01:51.016Z,9.10
2018-04-02T12:07:19.250Z,10.37
2018-04-02T12:09:48.836Z,9.77
2018-04-02T12:12:18.575Z,9.80
2018-04-02T12:14:46.232Z,11.63
2018-04-02T12:17:13.913Z,11.63
2018-04-02T12:19:41.568Z,13.93
2018-04-02T12:25:26.084Z,13.00
2018-04-02T12:30:47.431Z,12.77
2018-04-02T12:33:15.035Z,13.67
2018-04-02T12:35:42.695Z,12.33
2018-04-02T12:38:10.311Z,21.27
2018-04-02T12:40:40.925Z,16.50
2018-04-02T12:43:12.514Z,14.33
2018-04-02T12:45:41.501Z,13.30
2018-04-02T12:48:12.380Z,12.47
2018-04-02T12:50:39.922Z,10.73
2018-04-02T12:53:07.489Z,14.23
2018-04-02T12:55:35.220Z,12.33
2018-04-02T12:58:12.135Z,9.57
2018-04-02T13:00:44.046Z,6.73
2018-04-02T13:06:14.437Z,11.23
2018-04-02T13:08:42.047Z,7.37
2018-04-02T13:11:09.663Z,9.37
2018-04-02T13:24:31.672Z,14.37
2018-04-02T13:26:59.210Z,9.57
2018-04-02T13:29:26.748Z,14.00
2018-04-02T13:31:56.298Z,13.80
2018-04-02T13:34:32.192Z,12.27
2018-04-02T13:37:03.904Z,21.00
2018-04-02T13:39:31.494Z,11.13
2018-04-02T13:41:59.185Z,15.13
2018-04-02T13:44:26.816Z,14.93
2018-04-02T13:58:29.409Z,10.23
2018-04-02T14:00:56.961Z,13.17
2018-04-02T14:03:24.604Z,14.00
2018-04-02T14:05:53.213Z,9.90
2018-04-02T14:14:23.233Z,11.00
2018-04-02T14:16:51.084Z,16.57
2018-04-02T14:19:18.613Z,11.37
2018-04-02T14:30:28.000Z,18.80
2018-04-02T14:32:55.516Z,20.23
2018-04-02T14:35:23.079Z,17.47
2018-04-02T14:37:50.678Z,17.57
2018-04-02T14:40:20.102Z,17.63
2018-04-02T14:42:52.879Z,17.87
2018-04-02T14:45:24.998Z,20.17
2018-04-02T14:47:52.597Z,18.77
2018-04-02T14:50:20.181Z,22.13
2018-04-02T14:52:47.754Z,17.50
2018-04-02T14:55:15.557Z,20.73
2018-04-02T14:57:45.157Z,15.43
2018-04-02T15:00:13.681Z,22.17
2018-04-02T15:02:43.968Z,17.17
2018-04-02T15:05:11.516Z,23.33
2018-04-02T15:07:39.057Z,17.27
2018-04-02T15:10:06.619Z,11.50
2018-04-02T15:12:34.193Z,14.63
2018-04-02T15:15:01.890Z,17.17
2018-04-02T15:17:29.584Z,11.53
2018-04-02T15:20:00.140Z,17.97
2018-04-02T15:22:27.712Z,16.27
2018-04-02T15:24:55.276Z,16.50
2018-04-02T15:27:22.852Z,16.27
2018-04-02T15:29:50.476Z,12.90
2018-04-02T15:32:18.096Z,13.10
2018-04-02T15:34:45.592Z,14.30
2018-04-02T15:37:29.901Z,19.30
2018-04-02T15:39:57.428Z,15.07
2018-04-02T15:42:24.990Z,19.27
2018-04-02T15:44:52.502Z,20.20
2018-04-02T15:47:20.084Z,10.90
2018-04-02T15:49:50.148Z,10.07
2018-04-02T15:52:17.810Z,12.90
2018-04-02T15:54:48.154Z,19.10
2018-04-02T15:57:15.691Z,13.47
2018-04-02T15:59:43.218Z,20.20
2018-04-02T16:02:10.823Z,12.57
2018-04-02T16:04:38.477Z,15.10
2018-04-02T16:14:25.122Z,12.70
2018-04-02T16:16:52.739Z,16.90
2018-04-02T16:19:20.276Z,14.27
2018-04-02T16:21:48.408Z,19.07
2018-04-02T16:32:59.500Z,20.43
2018-04-02T16:35:27.024Z,16.07
2018-04-02T16:37:54.622Z,18.40
2018-04-02T16:49:29.382Z,14.57
2018-04-02T16:51:56.973Z,20.90
2018-04-02T16:54:24.563Z,15.57
2018-04-02T17:08:10.660Z,18.63
2018-04-02T17:10:38.425Z,19.30
2018-04-02T17:13:05.988Z,13.17
2018-04-02T17:24:42.012Z,21.80
2018-04-02T17:27:09.619Z,11.27
2018-04-02T17:29:37.261Z,13.67
2018-04-02T17:41:12.732Z,12.33
2018-04-02T17:43:40.286Z,13.67
2018-04-02T17:46:08.007Z,13.63
2018-04-02T17:57:17.590Z,17.83
2018-04-02T17:59:45.144Z,14.53
2018-04-02T18:02:12.666Z,21.30
2018-04-02T18:04:42.087Z,22.83
2018-04-02T18:15:16.054Z,20.77
2018-04-02T18:17:43.620Z,19.57
2018-04-02T18:20:11.160Z,19.60
2018-04-02T18:22:39.085Z,23.23
2018-04-02T18:25:08.076Z,25.27
2018-04-02T18:32:44.673Z,22.20
2018-04-02T18:35:12.202Z,18.97
2018-04-02T18:37:39.752Z,22.17
2018-04-02T18:47:56.621Z,23.37
2018-04-02T18:50:24.247Z,30.00
2018-04-02T18:52:51.821Z,26.37
2018-04-02T18:55:19.368Z,31.80
2018-04-02T19:03:17.368Z,18.07
2018-04-02T19:05:45.054Z,28.57
2018-04-02T19:08:12.711Z,22.47
2018-04-02T19:10:40.285Z,24.60
2018-04-02T19:13:07.902Z,16.57
2018-04-02T19:15:38.269Z,24.03
2018-04-02T19:18:08.970Z,23.93
2018-04-02T19:20:48.363Z,23.20
2018-04-02T19:23:15.962Z,27.07
2018-04-02T19:25:43.523Z,21.30
2018-04-02T19:28:11.116Z,24.87
2018-04-02T19:30:38.749Z,19.77
2018-04-02T19:33:08.634Z,27.40
2018-04-02T19:35:41.362Z,30.80
2018-04-02T19:38:16.201Z,25.60
2018-04-02T19:40:43.775Z,26.20
2018-04-02T19:43:11.328Z,26.03
2018-04-02T19:45:38.880Z,21.63
2018-04-02T19:48:06.604Z,27.57
2018-04-02T19:50:37.590Z,26.17
2018-04-02T19:53:12.205Z,22.07
2018-04-02T19:55:45.151Z,24.70
2018-04-02T19:58:12.856Z,20.63
2018-04-02T20:00:40.400Z,23.90
2018-04-02T20:03:09.754Z,25.70
2018-04-02T20:11:30.196Z,26.07
2018-04-02T20:14:07.804Z,22.67
2018-04-02T20:16:35.340Z,19.33
2018-04-02T20:19:02.928Z,20.23
2018-04-02T20:21:30.478Z,18.70
2018-04-02T20:26:39.811Z,22.53
2018-04-02T20:29:07.662Z,24.30
2018-04-02T20:31:35.288Z,27.27
2018-04-02T20:34:02.815Z,24.13
2018-04-02T20:36:30.415Z,24.53
2018-04-02T20:38:57.968Z,21.00
2018-04-02T20:41:25.694Z,21.40
2018-04-02T20:43:53.356Z,20.97
2018-04-02T20:46:21.869Z,20.00
2018-04-02T20:48:49.769Z,18.52
2018-04-02T20:51:17.314Z,22.40
2018-04-02T20:53:44.862Z,21.43
2018-04-02T20:56:12.423Z,23.63
2018-04-02T20:58:40.361Z,29.93
2018-04-02T21:01:20.532Z,24.67
2018-04-02T21:03:52.221Z,22.93
2018-04-02T21:06:22.352Z,35.67
2018-04-02T21:08:49.912Z,27.97
2018-04-02T21:11:17.460Z,25.80
2018-04-02T21:13:45.080Z,26.97
2018-04-02T21:16:21.052Z,29.53
2018-04-02T21:18:53.604Z,29.33
2018-04-02T21:21:22.134Z,26.40
2018-04-02T21:23:49.830Z,35.43
2018-04-02T21:26:17.436Z,29.70
2018-04-02T21:28:44.995Z,22.13
2018-04-02T21:31:12.549Z,19.07
2018-04-02T21:33:41.585Z,22.37
2018-04-02T21:36:10.238Z,21.67
2018-04-02T21:38:37.893Z,17.20
2018-04-02T21:41:06.010Z,20.13
2018-04-02T21:43:33.640Z,21.77
2018-04-02T21:46:01.207Z,22.93
2018-04-02T21:48:28.736Z,22.20
2018-04-02T21:50:57.452Z,25.80
2018-04-02T21:53:25.923Z,23.20
2018-04-02T21:55:53.873Z,24.57
2018-04-02T21:58:22.368Z,26.77
2018-04-02T22:00:49.912Z,24.40
2018-04-02T22:03:17.427Z,17.77
2018-04-02T22:05:44.985Z,21.00
2018-04-02T22:08:12.799Z,15.40
2018-04-02T22:10:41.041Z,19.43
2018-04-02T22:13:10.415Z,16.63
2018-04-02T22:15:38.064Z,26.47
2018-04-02T22:18:05.600Z,18.57
2018-04-02T22:20:33.172Z,24.97
2018-04-02T22:23:00.728Z,20.63
2018-04-02T22:25:28.329Z,19.60
2018-04-02T22:27:56.385Z,20.43
2018-04-02T22:30:24.400Z,24.70
2018-04-02T22:32:52.349Z,20.70
2018-04-02T22:35:19.915Z,17.03
2018-04-02T22:37:47.470Z,20.27
2018-04-02T22:40:15.064Z,17.47
2018-04-02T22:42:42.691Z,13.70
2018-04-02T22:45:10.314Z,14.60
2018-04-02T22:47:37.904Z,19.23
2018-04-02T22:50:05.568Z,23.43
2018-04-02T22:52:33.106Z,19.37
2018-04-02T22:55:00.669Z,22.40
2018-04-02T22:57:28.188Z,20.40
2018-04-02T22:59:55.739Z,17.10
2018-04-02T23:02:23.327Z,13.60
2018-04-02T23:04:50.942Z,14.13
2018-04-02T23:07:18.584Z,25.95
2018-04-02T23:09:46.211Z,17.67
2018-04-02T23:12:13.830Z,20.85
2018-04-02T23:14:41.378Z,16.37
2018-04-02T23:17:08.993Z,19.77
2018-04-02T23:19:36.729Z,17.10
2018-04-02T23:22:04.525Z,16.73
2018-04-02T23:24:32.489Z,20.63
2018-04-02T23:27:00.053Z,18.70
2018-04-02T23:29:27.610Z,20.40
2018-04-02T23:31:55.155Z,11.80
2018-04-02T23:34:22.791Z,17.93
2018-04-02T23:36:50.347Z,14.37
2018-04-02T23:39:17.949Z,17.07
2018-04-02T23:41:45.594Z,10.93
2018-04-02T23:44:13.168Z,15.13
2018-04-02T23:46:40.745Z,20.67
2018-04-02T23:49:08.323Z,17.13
2018-04-02T23:51:35.951Z,15.97
2018-04-02T23:56:35.381Z,17.07
2018-04-02T23:59:03.075Z,16.17
